createdAt,value
2023-03-03T00:00:33.298Z,86.47
2023-03-03T00:03:19.347Z,92.45
2023-03-03T00:05:46.304Z,95.05
2023-03-03T00:08:13.424Z,91.03
2023-03-03T00:10:40.197Z,91.82
2023-03-03T00:13:16.424Z,91.20
2023-03-03T00:15:43.400Z,87.22
2023-03-03T00:18:26.981Z,95.85
2023-03-03T00:20:55.091Z,94.90
2023-03-03T00:23:32.255Z,98.63
2023-03-03T00:25:59.508Z,98.95
2023-03-03T00:28:41.607Z,105.05
2023-03-03T00:31:33.517Z,99.15
2023-03-03T00:34:24.809Z,108.82
2023-03-03T00:36:56.246Z,117.75
2023-03-03T00:39:23.322Z,112.47
2023-03-03T00:41:50.168Z,111.20
2023-03-03T00:44:39.746Z,117.03
2023-03-03T00:47:30.743Z,109.80
2023-03-03T00:50:07.571Z,107.90
2023-03-03T00:52:43.462Z,116.13
2023-03-03T00:55:10.600Z,117.10
2023-03-03T00:57:37.333Z,120.25
2023-03-03T01:00:04.971Z,117.60
2023-03-03T01:02:31.781Z,116.15
2023-03-03T01:04:58.847Z,112.97
2023-03-03T01:07:25.818Z,115.07
2023-03-03T01:09:52.864Z,115.90
2023-03-03T01:12:19.624Z,119.78
2023-03-03T01:14:49.323Z,116.95
2023-03-03T01:17:16.098Z,110.57
2023-03-03T01:19:43.157Z,113.95
2023-03-03T01:22:09.937Z,110.70
2023-03-03T01:24:37.004Z,112.50
2023-03-03T01:27:03.797Z,112.47
2023-03-03T01:29:30.945Z,110.63
2023-03-03T01:31:57.791Z,111.82
2023-03-03T01:34:25.156Z,115.95
2023-03-03T01:36:51.904Z,113.00
2023-03-03T01:39:18.964Z,106.38
2023-03-03T01:41:45.812Z,110.63
2023-03-03T01:44:15.865Z,121.78
2023-03-03T01:47:04.656Z,110.50
2023-03-03T01:49:43.222Z,118.78
2023-03-03T01:52:15.527Z,114.13
2023-03-03T01:54:44.991Z,115.80
2023-03-03T01:57:14.682Z,114.65
2023-03-03T01:59:44.526Z,115.72
2023-03-03T02:02:11.317Z,112.18
2023-03-03T02:04:38.478Z,108.55
2023-03-03T02:07:11.166Z,111.28
2023-03-03T02:10:00.918Z,109.65
2023-03-03T02:12:36.198Z,116.40
2023-03-03T02:15:16.120Z,117.80
2023-03-03T02:17:42.834Z,112.28
2023-03-03T02:20:19.102Z,109.75
2023-03-03T02:23:30.398Z,113.90
2023-03-03T02:25:59.021Z,114.07
2023-03-03T02:28:30.365Z,111.95
2023-03-03T02:30:58.462Z,108.90
2023-03-03T02:33:25.657Z,113.30
2023-03-03T02:35:52.790Z,117.60
2023-03-03T02:38:31.204Z,108.45
2023-03-03T02:41:17.009Z,108.18
2023-03-03T02:44:05.649Z,108.05
2023-03-03T02:46:40.043Z,110.13
2023-03-03T02:49:07.588Z,109.03
2023-03-03T02:51:34.993Z,109.70
2023-03-03T02:54:01.998Z,112.20
2023-03-03T02:56:29.171Z,108.55
2023-03-03T02:58:55.983Z,104.35
2023-03-03T03:01:23.176Z,111.30
2023-03-03T03:03:50.081Z,105.90
2023-03-03T03:06:17.232Z,111.07
2023-03-03T03:08:43.967Z,111.60
2023-03-03T03:11:11.089Z,101.57
2023-03-03T03:13:37.798Z,102.57
2023-03-03T03:16:05.296Z,112.72
2023-03-03T03:18:32.139Z,95.68
2023-03-03T03:21:06.632Z,98.40
2023-03-03T03:23:34.563Z,95.95
2023-03-03T03:26:01.690Z,94.78
2023-03-03T03:28:28.454Z,102.78
2023-03-03T03:30:55.600Z,108.97
2023-03-03T03:33:22.465Z,103.05
2023-03-03T03:35:50.496Z,105.97
2023-03-03T03:38:17.459Z,101.38
2023-03-03T03:40:44.559Z,106.10
2023-03-03T03:43:11.384Z,101.00
2023-03-03T03:45:38.500Z,110.25
2023-03-03T03:48:05.424Z,104.72
2023-03-03T03:50:32.437Z,103.55
2023-03-03T03:52:59.202Z,112.43
2023-03-03T03:55:26.239Z,109.18
2023-03-03T03:57:52.994Z,111.55
2023-03-03T04:00:20.271Z,110.25
2023-03-03T04:02:47.174Z,111.43
2023-03-03T04:05:14.391Z,113.05
2023-03-03T04:07:41.205Z,117.68
2023-03-03T04:10:08.973Z,116.47
2023-03-03T04:12:38.645Z,108.40
2023-03-03T04:15:10.322Z,111.07
2023-03-03T04:17:37.099Z,116.95
2023-03-03T04:20:04.772Z,111.13
2023-03-03T04:22:36.006Z,116.38
2023-03-03T04:25:05.283Z,124.32
2023-03-03T04:27:33.239Z,121.82
2023-03-03T04:30:00.339Z,119.93
2023-03-03T04:32:27.129Z,124.40
2023-03-03T04:35:05.639Z,129.35
2023-03-03T04:37:34.390Z,121.95
2023-03-03T04:40:01.431Z,127.05
2023-03-03T04:42:28.925Z,133.73
2023-03-03T04:44:55.991Z,116.72
2023-03-03T04:47:22.727Z,123.00
2023-03-03T04:49:49.820Z,127.60
2023-03-03T04:52:16.580Z,123.22
2023-03-03T04:54:43.721Z,115.97
2023-03-03T04:57:10.489Z,122.28
2023-03-03T04:59:37.569Z,122.25
2023-03-03T05:02:05.402Z,117.65
2023-03-03T05:04:33.128Z,113.30
2023-03-03T05:06:59.916Z,112.85
2023-03-03T05:09:27.014Z,112.97
2023-03-03T05:11:54.157Z,112.30
2023-03-03T05:14:21.251Z,109.07
2023-03-03T05:16:48.014Z,106.68
2023-03-03T05:19:15.120Z,98.75
2023-03-03T05:21:42.616Z,114.22
2023-03-03T05:24:10.807Z,114.75
2023-03-03T05:26:37.701Z,100.28
2023-03-03T05:29:04.937Z,103.40
2023-03-03T05:31:31.750Z,102.00
2023-03-03T05:33:58.899Z,108.90
2023-03-03T05:36:25.748Z,105.38
2023-03-03T05:38:52.924Z,102.05
2023-03-03T05:41:19.740Z,100.57
2023-03-03T05:43:46.808Z,102.82
2023-03-03T05:46:13.644Z,102.68
2023-03-03T05:48:40.830Z,105.70
2023-03-03T05:51:07.612Z,100.32
2023-03-03T05:53:34.735Z,106.72
2023-03-03T05:56:01.462Z,100.13
2023-03-03T05:58:28.641Z,101.78
2023-03-03T06:00:55.382Z,99.28
2023-03-03T06:03:22.610Z,93.47
2023-03-03T06:05:49.373Z,105.53
2023-03-03T06:08:16.508Z,100.40
2023-03-03T06:10:43.280Z,100.47
2023-03-03T06:13:10.344Z,99.50
2023-03-03T06:15:37.216Z,104.50
2023-03-03T06:18:04.388Z,101.63
2023-03-03T06:20:31.728Z,103.72
2023-03-03T06:22:58.832Z,112.03
2023-03-03T06:25:25.563Z,118.97
2023-03-03T06:27:52.701Z,113.95
2023-03-03T06:30:19.546Z,121.15
2023-03-03T06:32:46.901Z,117.25
2023-03-03T06:35:13.811Z,121.63
2023-03-03T06:37:40.883Z,112.38
2023-03-03T06:40:08.226Z,122.05
2023-03-03T06:42:35.302Z,119.10
2023-03-03T06:45:02.024Z,120.75
2023-03-03T06:47:29.070Z,116.45
2023-03-03T06:49:55.828Z,121.60
2023-03-03T06:52:24.569Z,126.43
2023-03-03T06:54:53.818Z,125.70
2023-03-03T06:57:27.953Z,118.38
2023-03-03T06:59:57.144Z,117.18
2023-03-03T07:02:24.248Z,123.68
2023-03-03T07:04:51.054Z,117.20
2023-03-03T07:07:25.534Z,120.63
2023-03-03T07:09:54.273Z,118.10
2023-03-03T07:12:27.266Z,118.00
2023-03-03T07:15:22.368Z,116.85
2023-03-03T07:17:51.334Z,113.53
2023-03-03T07:20:19.605Z,109.45
2023-03-03T07:22:46.738Z,117.70
2023-03-03T07:25:30.194Z,114.13
2023-03-03T07:28:04.505Z,112.43
2023-03-03T07:30:31.340Z,109.63
2023-03-03T07:32:58.577Z,110.38
2023-03-03T07:35:44.361Z,112.32
2023-03-03T07:38:20.638Z,105.47
2023-03-03T07:40:55.352Z,103.72
2023-03-03T07:43:48.609Z,102.07
2023-03-03T07:46:29.335Z,103.00
2023-03-03T07:48:57.696Z,98.38
2023-03-03T07:51:29.233Z,101.10
2023-03-03T07:54:31.689Z,104.68
2023-03-03T07:57:28.157Z,99.32
2023-03-03T08:00:17.132Z,102.22
2023-03-03T08:02:47.702Z,101.05
2023-03-03T08:05:31.505Z,93.50
2023-03-03T08:08:10.690Z,91.93
2023-03-03T08:10:43.512Z,91.97
2023-03-03T08:13:17.667Z,94.57
2023-03-03T08:15:46.071Z,101.65
2023-03-03T08:18:24.354Z,89.10
2023-03-03T08:20:53.340Z,91.22
2023-03-03T08:23:20.367Z,90.47
2023-03-03T08:25:47.834Z,90.00
2023-03-03T08:28:14.680Z,94.45
2023-03-03T08:30:42.105Z,90.95
2023-03-03T08:33:08.891Z,91.93
2023-03-03T08:35:36.096Z,93.18
2023-03-03T08:38:03.053Z,93.22
2023-03-03T08:40:31.143Z,96.57
2023-03-03T08:42:58.274Z,91.68
2023-03-03T08:45:26.068Z,96.68
2023-03-03T08:47:52.910Z,96.30
2023-03-03T08:50:38.756Z,94.20
2023-03-03T08:53:05.939Z,84.32
2023-03-03T08:55:32.733Z,89.22
2023-03-03T08:57:59.830Z,93.90
2023-03-03T09:00:26.691Z,92.53
2023-03-03T09:02:53.941Z,85.22
2023-03-03T09:05:20.924Z,83.93
2023-03-03T09:07:48.331Z,77.40
2023-03-03T09:10:17.182Z,84.05
2023-03-03T09:12:48.679Z,80.28
2023-03-03T09:15:26.896Z,76.13
2023-03-03T09:17:54.015Z,80.50
2023-03-03T09:20:29.782Z,76.22
2023-03-03T09:22:56.904Z,78.55
2023-03-03T09:25:30.305Z,71.38
2023-03-03T09:27:57.443Z,73.82
2023-03-03T09:30:29.820Z,72.30
2023-03-03T09:32:57.350Z,74.80
2023-03-03T09:35:36.118Z,69.35
2023-03-03T09:38:30.649Z,71.13
2023-03-03T09:41:11.217Z,72.70
2023-03-03T09:44:01.171Z,71.38
2023-03-03T09:46:52.367Z,74.18
2023-03-03T09:49:33.181Z,73.43
2023-03-03T09:52:31.042Z,74.85
2023-03-03T09:55:08.069Z,71.35
2023-03-03T09:58:10.860Z,77.15
2023-03-03T10:01:13.604Z,65.35
2023-03-03T10:03:55.627Z,69.30
2023-03-03T10:06:29.297Z,75.32
2023-03-03T10:08:56.025Z,71.68
2023-03-03T10:11:42.934Z,71.20
2023-03-03T10:14:35.249Z,70.80
2023-03-03T10:17:14.508Z,73.13
2023-03-03T10:19:46.403Z,71.65
2023-03-03T10:22:35.036Z,71.18
2023-03-03T10:25:24.904Z,70.65
2023-03-03T10:28:16.961Z,70.63
2023-03-03T10:31:06.188Z,69.63
2023-03-03T10:34:12.085Z,72.88
2023-03-03T10:36:54.121Z,70.22
2023-03-03T10:39:48.815Z,73.53
2023-03-03T10:42:32.105Z,67.20
2023-03-03T10:45:02.264Z,67.15
2023-03-03T10:48:09.329Z,70.82
2023-03-03T10:50:45.576Z,69.97
2023-03-03T10:53:21.321Z,69.20
2023-03-03T10:55:59.150Z,64.13
2023-03-03T10:58:32.691Z,66.10
2023-03-03T11:01:03.666Z,70.32
2023-03-03T11:03:41.062Z,67.47
2023-03-03T11:06:34.074Z,64.05
2023-03-03T11:09:19.479Z,60.92
2023-03-03T11:14:19.417Z,63.35
2023-03-03T11:17:24.836Z,63.10
2023-03-03T11:20:05.050Z,64.97
2023-03-03T11:22:46.752Z,62.20
2023-03-03T11:25:35.429Z,61.80
2023-03-03T11:28:02.493Z,68.03
2023-03-03T11:30:34.420Z,64.28
2023-03-03T11:33:34.082Z,65.75
2023-03-03T11:36:27.690Z,59.13
2023-03-03T11:38:59.962Z,64.78
2023-03-03T11:41:46.055Z,65.25
2023-03-03T11:44:19.071Z,62.88
2023-03-03T11:47:03.999Z,61.08
2023-03-03T11:49:50.045Z,55.38
2023-03-03T11:55:02.624Z,58.67
2023-03-03T11:57:37.039Z,67.32
2023-03-03T12:00:16.534Z,71.80
2023-03-03T12:02:52.604Z,62.03
2023-03-03T12:05:28.994Z,57.88
2023-03-03T12:08:19.320Z,60.05
2023-03-03T12:10:49.266Z,70.57
2023-03-03T12:13:30.315Z,61.90
2023-03-03T12:16:04.637Z,58.13
2023-03-03T12:18:53.963Z,58.70
2023-03-03T12:21:36.211Z,61.78
2023-03-03T12:24:08.467Z,58.08
2023-03-03T12:26:45.009Z,51.88
2023-03-03T12:29:12.146Z,53.03
2023-03-03T12:32:00.381Z,52.60
2023-03-03T12:34:41.417Z,58.20
2023-03-03T12:37:23.234Z,52.88
2023-03-03T12:39:52.895Z,49.75
2023-03-03T12:42:42.362Z,51.92
2023-03-03T12:45:24.506Z,55.33
2023-03-03T12:47:57.981Z,49.28
2023-03-03T12:50:34.590Z,48.03
2023-03-03T12:53:09.900Z,52.20
2023-03-03T12:55:52.104Z,46.05
2023-03-03T12:58:31.341Z,49.55
2023-03-03T13:01:07.176Z,48.10
2023-03-03T13:03:58.301Z,46.58
2023-03-03T13:06:51.870Z,48.15
2023-03-03T13:09:39.279Z,47.90
2023-03-03T13:12:18.192Z,44.45
2023-03-03T13:14:54.591Z,47.78
2023-03-03T13:17:25.094Z,49.65
2023-03-03T13:20:03.183Z,46.97
2023-03-03T13:22:39.060Z,50.17
2023-03-03T13:25:09.531Z,48.38
2023-03-03T13:27:39.852Z,48.42
2023-03-03T13:30:22.929Z,48.33
2023-03-03T13:33:31.259Z,48.85
2023-03-03T13:36:01.238Z,48.95
2023-03-03T13:38:37.433Z,47.80
2023-03-03T13:41:29.745Z,40.75
2023-03-03T13:44:01.533Z,48.03
2023-03-03T13:46:43.416Z,40.47
2023-03-03T13:49:28.675Z,41.78
2023-03-03T13:52:06.525Z,44.97
2023-03-03T13:54:42.832Z,40.97
2023-03-03T13:57:18.983Z,40.67
2023-03-03T13:59:51.704Z,47.35
2023-03-03T14:02:46.095Z,41.13
2023-03-03T14:05:44.730Z,39.38
2023-03-03T14:08:18.046Z,42.13
2023-03-03T14:11:10.747Z,35.35
2023-03-03T14:13:49.515Z,41.53
2023-03-03T14:16:20.890Z,37.40
2023-03-03T14:18:57.175Z,40.35
2023-03-03T14:21:28.367Z,44.70
2023-03-03T14:24:16.692Z,36.65
2023-03-03T14:26:54.185Z,38.85
2023-03-03T14:29:27.527Z,38.65
2023-03-03T14:32:01.749Z,35.20
2023-03-03T14:34:39.764Z,33.83
2023-03-03T14:37:27.486Z,31.77
2023-03-03T14:40:22.544Z,35.65
2023-03-03T14:42:52.393Z,32.17
2023-03-03T14:45:29.579Z,37.58
2023-03-03T14:47:56.963Z,37.05
2023-03-03T14:50:30.876Z,35.78
2023-03-03T14:53:18.866Z,35.95
2023-03-03T14:55:47.807Z,36.42
2023-03-03T14:58:39.456Z,35.75
2023-03-03T15:01:35.244Z,33.83
2023-03-03T15:04:10.614Z,36.00
2023-03-03T15:06:37.879Z,34.28
2023-03-03T15:09:45.586Z,33.88
2023-03-03T15:12:26.737Z,40.50
2023-03-03T15:15:06.269Z,37.28
2023-03-03T15:17:37.346Z,41.38
2023-03-03T15:20:32.212Z,37.00
2023-03-03T15:23:09.183Z,38.53
2023-03-03T15:25:55.989Z,38.92
2023-03-03T15:28:52.740Z,33.97
2023-03-03T15:31:32.905Z,38.37
2023-03-03T15:34:13.597Z,35.78
2023-03-03T15:37:31.067Z,37.53
2023-03-03T15:40:04.146Z,38.33
2023-03-03T15:42:42.929Z,39.22
2023-03-03T15:45:25.417Z,41.55
2023-03-03T15:48:10.940Z,37.05
2023-03-03T15:53:05.827Z,34.38
2023-03-03T15:55:44.773Z,38.67
2023-03-03T15:58:30.282Z,34.30
2023-03-03T16:03:36.456Z,37.55
2023-03-03T16:06:06.863Z,37.90
2023-03-03T16:09:02.752Z,41.00
2023-03-03T16:14:16.341Z,37.90
2023-03-03T16:17:14.633Z,40.17
2023-03-03T16:19:49.672Z,39.10
2023-03-03T16:25:07.251Z,42.95
2023-03-03T16:27:48.510Z,54.28
2023-03-03T16:30:28.438Z,51.75
2023-03-03T16:33:04.600Z,59.25
2023-03-03T16:35:39.659Z,67.88
2023-03-03T16:38:11.501Z,72.13
2023-03-03T16:40:49.771Z,81.95
2023-03-03T16:43:16.895Z,85.63
2023-03-03T16:45:43.725Z,86.03
2023-03-03T16:48:20.924Z,87.07
2023-03-03T16:50:57.398Z,89.53
2023-03-03T16:53:39.809Z,87.35
2023-03-03T16:56:09.391Z,83.15
2023-03-03T16:58:55.261Z,82.10
2023-03-03T17:01:28.821Z,76.82
2023-03-03T17:04:02.404Z,82.88
2023-03-03T17:06:31.341Z,82.85
2023-03-03T17:09:31.800Z,73.38
2023-03-03T17:12:11.468Z,76.45
2023-03-03T17:14:47.791Z,79.07
2023-03-03T17:17:36.844Z,81.88
2023-03-03T17:20:16.339Z,68.38
2023-03-03T17:23:03.286Z,76.22
2023-03-03T17:25:43.059Z,73.57
2023-03-03T17:28:19.085Z,71.95
2023-03-03T17:30:53.418Z,73.03
2023-03-03T17:33:23.235Z,73.07
2023-03-03T17:36:16.307Z,67.75
2023-03-03T17:39:06.334Z,67.10
2023-03-03T17:41:40.836Z,64.07
2023-03-03T17:44:10.598Z,67.32
2023-03-03T17:47:08.322Z,63.03
2023-03-03T17:50:13.996Z,64.15
2023-03-03T17:52:44.020Z,63.78
2023-03-03T17:55:23.709Z,59.22
2023-03-03T17:58:03.022Z,60.15
2023-03-03T18:01:00.504Z,56.97
2023-03-03T18:03:52.195Z,56.60
2023-03-03T18:06:27.534Z,58.22
2023-03-03T18:09:23.964Z,52.60
2023-03-03T18:14:36.426Z,55.75
2023-03-03T18:17:31.038Z,55.25
2023-03-03T18:20:10.310Z,56.95
2023-03-03T18:22:45.982Z,55.13
2023-03-03T18:25:14.353Z,53.03
2023-03-03T18:27:42.635Z,52.45
2023-03-03T18:30:20.398Z,56.95
2023-03-03T18:32:56.241Z,53.70
2023-03-03T18:35:38.725Z,53.45
2023-03-03T18:38:17.926Z,47.70
2023-03-03T18:41:10.011Z,53.33
2023-03-03T18:43:45.801Z,55.35
2023-03-03T18:46:24.716Z,51.13
2023-03-03T18:49:00.776Z,46.75
2023-03-03T18:51:40.125Z,56.38
2023-03-03T18:54:13.650Z,53.95
2023-03-03T18:56:55.230Z,50.03
2023-03-03T18:59:34.218Z,47.53
2023-03-03T19:02:13.380Z,49.25
2023-03-03T19:04:44.892Z,50.28
2023-03-03T19:07:28.490Z,46.58
2023-03-03T19:10:01.457Z,48.30
2023-03-03T19:12:51.637Z,46.67
2023-03-03T19:15:36.664Z,44.72
2023-03-03T19:18:15.058Z,42.75
2023-03-03T19:20:46.014Z,42.42
2023-03-03T19:23:17.741Z,43.95
2023-03-03T19:25:44.581Z,42.55
2023-03-03T19:28:14.755Z,38.25
2023-03-03T19:31:17.139Z,49.40
2023-03-03T19:33:57.113Z,44.17
2023-03-03T19:36:49.017Z,45.38
2023-03-03T19:39:39.155Z,43.70
2023-03-03T19:42:14.204Z,39.22
2023-03-03T19:45:11.757Z,42.78
2023-03-03T19:47:59.891Z,42.33
2023-03-03T19:51:05.486Z,40.03
2023-03-03T19:53:39.517Z,39.08
2023-03-03T19:56:10.896Z,42.58
2023-03-03T19:58:50.688Z,39.95
2023-03-03T20:01:38.073Z,44.65
2023-03-03T20:04:26.224Z,35.95
2023-03-03T20:06:57.900Z,36.88
2023-03-03T20:09:33.849Z,40.92
2023-03-03T20:12:16.097Z,42.72
2023-03-03T20:14:51.880Z,42.53
2023-03-03T20:17:29.495Z,42.38
2023-03-03T20:19:57.749Z,44.13
2023-03-03T20:22:31.572Z,41.63
2023-03-03T20:25:19.979Z,38.17
2023-03-03T20:27:55.346Z,41.83
2023-03-03T20:30:59.157Z,45.08
2023-03-03T20:33:44.124Z,46.95
2023-03-03T20:36:43.261Z,46.83
2023-03-03T20:39:33.330Z,50.20
2023-03-03T20:42:15.354Z,48.63
2023-03-03T20:44:58.612Z,50.50
2023-03-03T20:47:25.338Z,55.08
2023-03-03T20:50:22.653Z,48.67
2023-03-03T20:53:24.596Z,51.72
2023-03-03T20:56:16.848Z,52.33
2023-03-03T20:59:01.372Z,49.85
2023-03-03T21:01:36.611Z,51.65
2023-03-03T21:04:22.049Z,50.95
2023-03-03T21:09:32.661Z,51.33
2023-03-03T21:12:00.642Z,49.53
2023-03-03T21:14:36.898Z,48.33
2023-03-03T21:17:27.045Z,54.22
2023-03-03T21:19:53.799Z,47.10
2023-03-03T21:22:20.855Z,54.22
2023-03-03T21:24:55.498Z,51.05
2023-03-03T21:27:33.254Z,46.97
2023-03-03T21:30:14.056Z,51.08
2023-03-03T21:32:43.000Z,51.90
2023-03-03T21:35:14.668Z,46.65
2023-03-03T21:37:53.281Z,47.10
2023-03-03T21:40:25.788Z,46.10
2023-03-03T21:42:54.663Z,47.38
2023-03-03T21:45:21.872Z,51.25
2023-03-03T21:47:48.701Z,45.08
2023-03-03T21:50:16.443Z,47.58
2023-03-03T21:52:43.226Z,40.42
2023-03-03T21:55:10.486Z,47.38
2023-03-03T21:57:37.295Z,43.25
2023-03-03T22:00:05.651Z,48.17
2023-03-03T22:02:32.470Z,44.90
2023-03-03T22:04:59.737Z,48.08
2023-03-03T22:07:26.530Z,49.85
2023-03-03T22:09:53.612Z,50.67
2023-03-03T22:12:20.429Z,50.83
2023-03-03T22:14:47.571Z,47.85
2023-03-03T22:17:14.349Z,51.08
2023-03-03T22:19:41.471Z,55.72
2023-03-03T22:22:08.227Z,57.42
2023-03-03T22:24:35.284Z,55.28
2023-03-03T22:27:03.492Z,52.95
2023-03-03T22:29:30.603Z,58.13
2023-03-03T22:31:57.457Z,49.65
2023-03-03T22:34:24.750Z,58.50
2023-03-03T22:36:51.583Z,52.47
2023-03-03T22:39:18.681Z,59.33
2023-03-03T22:41:45.413Z,56.30
2023-03-03T22:44:12.497Z,55.63
2023-03-03T22:46:39.383Z,54.38
2023-03-03T22:49:06.528Z,56.58
2023-03-03T22:51:33.327Z,55.40
2023-03-03T22:54:00.423Z,53.40
2023-03-03T22:56:27.179Z,56.58
2023-03-03T22:58:54.230Z,52.95
2023-03-03T23:01:21.030Z,55.20
2023-03-03T23:03:48.076Z,56.10
2023-03-03T23:06:14.866Z,58.17
2023-03-03T23:08:41.947Z,61.88
2023-03-03T23:11:08.720Z,66.88
2023-03-03T23:13:35.820Z,60.28
2023-03-03T23:16:03.081Z,62.33
2023-03-03T23:18:30.232Z,68.57
2023-03-03T23:20:57.042Z,61.70
2023-03-03T23:23:24.252Z,64.00
2023-03-03T23:25:51.065Z,63.08
2023-03-03T23:28:19.301Z,64.70
2023-03-03T23:30:46.242Z,65.38
2023-03-03T23:33:13.408Z,65.22
2023-03-03T23:35:40.441Z,61.28
2023-03-03T23:38:07.559Z,64.43
2023-03-03T23:40:34.342Z,61.65
2023-03-03T23:43:01.405Z,56.17
2023-03-03T23:45:28.182Z,59.85
2023-03-03T23:47:55.195Z,59.38
2023-03-03T23:50:21.947Z,58.55
2023-03-03T23:52:49.126Z,56.05
2023-03-03T23:55:16.162Z,64.18
2023-03-03T23:57:43.244Z,56.85
